Time;durP1;ratioP1;P1;durP2;ratioP2;P2;SDS_P1;SDS_P2;PMS_P1;PMS_P2;Temp;Humidity;BMP_temperature;BMP_pressure;BME280_temperature;BME280_humidity;BME280_pressure;Samples;Min_cycle;Max_cycle;Signal;HPM_P1;HPM_P2
2024/03/08 00:02:14;;;;;;;45.73;22.10;;;;;;;;;;5056633;28;20258;-72
2024/03/08 00:04:39;;;;;;;46.83;21.87;;;;;;;;;;5064303;28;20657;-72
2024/03/08 00:07:05;;;;;;;48.20;20.40;;;;;;;;;;5066045;28;20192;-71
2024/03/08 00:09:31;;;;;;;48.10;21.80;;;;;;;;;;5059700;28;20223;-73
2024/03/08 00:11:56;;;;;;;52.67;21.83;;;;;;;;;;5061965;28;20197;-72
2024/03/08 00:14:22;;;;;;;52.10;22.60;;;;;;;;;;5063203;28;20193;-72
2024/03/08 00:16:48;;;;;;;47.10;21.40;;;;;;;;;;5049017;28;20626;-73
2024/03/08 00:19:13;;;;;;;45.87;22.07;;;;;;;;;;5060132;28;20653;-72
2024/03/08 00:21:39;;;;;;;45.03;20.10;;;;;;;;;;5061980;28;20682;-72
2024/03/08 00:24:04;;;;;;;54.97;21.67;;;;;;;;;;5064670;28;20676;-73
2024/03/08 00:26:30;;;;;;;47.33;19.97;;;;;;;;;;5067472;28;20224;-72
2024/03/08 00:28:55;;;;;;;48.00;21.37;;;;;;;;;;5070845;28;20268;-72
2024/03/08 00:31:21;;;;;;;53.87;21.23;;;;;;;;;;5062432;28;20192;-72
2024/03/08 00:33:46;;;;;;;52.03;21.00;;;;;;;;;;5067365;28;20591;-72
2024/03/08 00:36:12;;;;;;;52.27;21.30;;;;;;;;;;5067688;28;20255;-72
2024/03/08 00:38:37;;;;;;;44.03;21.40;;;;;;;;;;5057762;28;20192;-72
2024/03/08 00:41:03;;;;;;;43.60;20.27;;;;;;;;;;5065432;28;20582;-72
2024/03/08 00:43:30;;;;;;;51.43;21.27;;;;;;;;;;5069185;28;20216;-72
2024/03/08 00:45:55;;;;;;;46.93;20.67;;;;;;;;;;5068332;28;20239;-72
2024/03/08 00:48:21;;;;;;;46.10;21.33;;;;;;;;;;5048473;28;20196;-72
2024/03/08 00:50:46;;;;;;;49.17;20.63;;;;;;;;;;5067264;28;20651;-72
2024/03/08 00:53:12;;;;;;;44.93;21.13;;;;;;;;;;5067174;28;20176;-72
2024/03/08 00:55:38;;;;;;;46.93;21.57;;;;;;;;;;5065178;28;20396;-72
2024/03/08 00:58:04;;;;;;;44.50;21.93;;;;;;;;;;5063824;28;20189;-72
2024/03/08 01:00:30;;;;;;;46.17;22.10;;;;;;;;;;5064170;28;20651;-72
2024/03/08 01:02:56;;;;;;;45.37;21.37;;;;;;;;;;5058817;28;20238;-72
2024/03/08 01:05:24;;;;;;;45.07;21.47;;;;;;;;;;5066327;28;20194;-72
2024/03/08 01:07:50;;;;;;;48.57;21.43;;;;;;;;;;5051781;28;20548;-71
2024/03/08 01:10:15;;;;;;;48.97;21.77;;;;;;;;;;5064419;28;20189;-71
2024/03/08 01:12:42;;;;;;;53.93;21.93;;;;;;;;;;5070076;28;20185;-72
2024/03/08 01:15:09;;;;;;;48.07;20.47;;;;;;;;;;5061058;28;20201;-71
2024/03/08 01:17:34;;;;;;;45.87;20.80;;;;;;;;;;5059949;28;20268;-72
2024/03/08 01:20:00;;;;;;;44.70;20.07;;;;;;;;;;5058404;28;20315;-72
2024/03/08 01:22:25;;;;;;;44.50;21.47;;;;;;;;;;5063412;28;20628;-73
2024/03/08 01:24:51;;;;;;;49.53;22.13;;;;;;;;;;5056750;28;20676;-72
2024/03/08 01:27:16;;;;;;;46.90;20.40;;;;;;;;;;5057709;28;20189;-72
2024/03/08 01:29:42;;;;;;;50.37;21.93;;;;;;;;;;5061315;28;20223;-72
2024/03/08 01:32:08;;;;;;;46.83;21.93;;;;;;;;;;5055635;28;20246;-72
2024/03/08 01:34:33;;;;;;;44.37;19.87;;;;;;;;;;5062537;28;20279;-72
2024/03/08 01:36:59;;;;;;;51.13;22.27;;;;;;;;;;5057502;28;20617;-72
2024/03/08 01:39:25;;;;;;;45.80;21.63;;;;;;;;;;5066865;28;20278;-73
2024/03/08 01:41:50;;;;;;;50.07;21.27;;;;;;;;;;5055174;28;20560;-72
2024/03/08 01:44:17;;;;;;;43.10;20.93;;;;;;;;;;5058278;28;20708;-72
2024/03/08 01:46:47;;;;;;;47.43;21.70;;;;;;;;;;5065287;28;20235;-72
2024/03/08 01:49:13;;;;;;;48.37;21.60;;;;;;;;;;5055306;28;20241;-72
2024/03/08 01:51:41;;;;;;;51.30;22.87;;;;;;;;;;5062820;28;20194;-73
2024/03/08 01:54:09;;;;;;;49.47;22.23;;;;;;;;;;5059548;28;20199;-73
2024/03/08 01:56:37;;;;;;;45.50;21.00;;;;;;;;;;5068022;28;20181;-73
2024/03/08 01:59:03;;;;;;;45.40;22.57;;;;;;;;;;5069352;28;20335;-72
2024/03/08 02:01:29;;;;;;;49.27;23.83;;;;;;;;;;5077603;28;20275;-72
2024/03/08 02:03:54;;;;;;;50.53;23.13;;;;;;;;;;5068649;28;20369;-72
2024/03/08 02:06:20;;;;;;;44.80;21.33;;;;;;;;;;5060074;28;20193;-72
2024/03/08 02:08:46;;;;;;;50.73;22.10;;;;;;;;;;5068746;28;20230;-72
2024/03/08 02:11:12;;;;;;;49.60;21.97;;;;;;;;;;5067997;28;20266;-72
2024/03/08 02:13:38;;;;;;;46.67;22.10;;;;;;;;;;5067492;28;20192;-72
2024/03/08 02:16:04;;;;;;;49.80;22.53;;;;;;;;;;5059618;28;20553;-72
2024/03/08 02:18:30;;;;;;;47.73;23.53;;;;;;;;;;5067299;28;20568;-72
2024/03/08 02:20:57;;;;;;;47.27;22.63;;;;;;;;;;5069219;28;20241;-71
2024/03/08 02:23:24;;;;;;;50.67;23.17;;;;;;;;;;5063786;28;20699;-71
2024/03/08 02:25:50;;;;;;;45.93;22.53;;;;;;;;;;5067421;28;20498;-72
2024/03/08 02:28:18;;;;;;;51.97;22.80;;;;;;;;;;5070962;28;20197;-72
2024/03/08 02:30:46;;;;;;;49.13;23.10;;;;;;;;;;5067683;28;20648;-72
2024/03/08 02:33:16;;;;;;;58.23;25.47;;;;;;;;;;5067845;28;20181;-72
2024/03/08 02:35:41;;;;;;;50.77;22.93;;;;;;;;;;5062793;28;20309;-71
2024/03/08 02:38:08;;;;;;;49.73;23.00;;;;;;;;;;5053899;28;20193;-71
2024/03/08 02:40:33;;;;;;;50.73;23.30;;;;;;;;;;5058543;28;20534;-72
2024/03/08 02:42:59;;;;;;;49.90;22.43;;;;;;;;;;5068584;28;20208;-71
2024/03/08 02:45:24;;;;;;;55.97;23.60;;;;;;;;;;5064305;28;20197;-72
2024/03/08 02:47:50;;;;;;;53.27;23.53;;;;;;;;;;5064011;28;20261;-72
2024/03/08 02:50:16;;;;;;;47.10;22.83;;;;;;;;;;5064898;28;20201;-72
2024/03/08 02:52:42;;;;;;;53.30;24.33;;;;;;;;;;5086328;28;20318;-71
2024/03/08 02:55:10;;;;;;;47.83;22.97;;;;;;;;;;5062524;28;20189;-72
2024/03/08 02:57:36;;;;;;;52.40;24.27;;;;;;;;;;5083787;28;20257;-72
2024/03/08 03:00:03;;;;;;;56.00;24.17;;;;;;;;;;5067763;28;20266;-72
2024/03/08 03:02:29;;;;;;;52.93;23.93;;;;;;;;;;5052830;28;20305;-72
2024/03/08 03:04:55;;;;;;;50.47;23.10;;;;;;;;;;5069549;28;20192;-73
2024/03/08 03:07:21;;;;;;;48.63;23.43;;;;;;;;;;5074395;28;20215;-72
2024/03/08 03:09:47;;;;;;;50.37;24.90;;;;;;;;;;5055913;28;20412;-72
2024/03/08 03:12:12;;;;;;;51.10;24.00;;;;;;;;;;5063197;28;20281;-72
2024/03/08 03:14:38;;;;;;;53.03;23.77;;;;;;;;;;5062115;28;20186;-72
2024/03/08 03:17:04;;;;;;;48.77;23.73;;;;;;;;;;5065133;28;20271;-72
2024/03/08 03:19:30;;;;;;;52.07;24.00;;;;;;;;;;5066799;28;20209;-71
2024/03/08 03:21:56;;;;;;;51.67;24.83;;;;;;;;;;5073182;28;20189;-72
2024/03/08 03:24:23;;;;;;;49.93;23.87;;;;;;;;;;5083202;28;20204;-72
2024/03/08 03:26:49;;;;;;;55.97;24.40;;;;;;;;;;5041953;28;20581;-72
2024/03/08 03:29:16;;;;;;;53.67;25.27;;;;;;;;;;5066367;28;20186;-72
2024/03/08 03:31:45;;;;;;;52.70;24.57;;;;;;;;;;5053702;28;20189;-72
2024/03/08 03:34:10;;;;;;;52.57;23.57;;;;;;;;;;5068224;28;20185;-72
2024/03/08 03:36:38;;;;;;;49.07;23.77;;;;;;;;;;5068166;28;20272;-73
2024/03/08 03:39:15;;;;;;;50.33;24.93;;;;;;;;;;5069090;28;20193;-72
2024/03/08 03:41:42;;;;;;;54.20;24.63;;;;;;;;;;5072916;28;20187;-72
2024/03/08 03:44:08;;;;;;;50.37;24.03;;;;;;;;;;5062048;28;20712;-72
2024/03/08 03:46:34;;;;;;;53.03;25.17;;;;;;;;;;5063011;28;20245;-72
2024/03/08 03:48:59;;;;;;;50.47;24.17;;;;;;;;;;5053014;28;20243;-72
2024/03/08 03:51:25;;;;;;;52.17;24.67;;;;;;;;;;5069626;28;20196;-72
2024/03/08 03:53:53;;;;;;;46.30;23.60;;;;;;;;;;5068758;28;20194;-72
2024/03/08 03:56:18;;;;;;;49.77;23.50;;;;;;;;;;5064356;28;20192;-72
2024/03/08 03:58:44;;;;;;;51.43;24.43;;;;;;;;;;5044611;28;20252;-72
2024/03/08 04:01:10;;;;;;;55.47;24.30;;;;;;;;;;5068141;28;20698;-72
2024/03/08 04:03:36;;;;;;;56.13;25.30;;;;;;;;;;5069922;28;20209;-72
2024/03/08 04:06:04;;;;;;;54.20;25.20;;;;;;;;;;5069009;28;20181;-72
2024/03/08 04:08:30;;;;;;;50.37;25.13;;;;;;;;;;5064283;28;20192;-72
2024/03/08 04:10:55;;;;;;;54.97;25.30;;;;;;;;;;5060174;28;20185;-72
2024/03/08 04:13:20;;;;;;;45.97;24.17;;;;;;;;;;5072480;28;20245;-72
2024/03/08 04:15:48;;;;;;;51.53;24.53;;;;;;;;;;5069309;28;20200;-72
2024/03/08 04:18:14;;;;;;;50.43;25.37;;;;;;;;;;5067587;28;20200;-72
2024/03/08 04:20:40;;;;;;;54.10;25.00;;;;;;;;;;5062710;28;20193;-71
2024/03/08 04:23:05;;;;;;;50.67;23.97;;;;;;;;;;5070753;28;20306;-73
2024/03/08 04:25:31;;;;;;;56.40;23.67;;;;;;;;;;5068621;28;20227;-73
2024/03/08 04:27:56;;;;;;;57.77;25.53;;;;;;;;;;5061935;28;20513;-71
2024/03/08 04:30:22;;;;;;;52.50;25.27;;;;;;;;;;5057606;28;20193;-71
2024/03/08 04:32:47;;;;;;;53.67;25.00;;;;;;;;;;5054606;28;20185;-71
2024/03/08 04:35:14;;;;;;;53.83;24.07;;;;;;;;;;5068831;28;20229;-72
2024/03/08 04:37:40;;;;;;;52.40;26.10;;;;;;;;;;5067945;28;20239;-71
2024/03/08 04:40:06;;;;;;;50.70;25.03;;;;;;;;;;5065723;28;20283;-71
2024/03/08 04:42:35;;;;;;;51.30;24.37;;;;;;;;;;5066254;28;20185;-71
2024/03/08 04:45:01;;;;;;;58.60;26.10;;;;;;;;;;5063357;28;20185;-73
2024/03/08 04:47:26;;;;;;;51.63;25.73;;;;;;;;;;5069773;28;20238;-72
2024/03/08 04:49:52;;;;;;;51.87;24.87;;;;;;;;;;5054855;28;20193;-72
2024/03/08 04:52:17;;;;;;;57.90;26.97;;;;;;;;;;5060294;28;20549;-72
2024/03/08 04:54:44;;;;;;;52.73;27.00;;;;;;;;;;5057389;28;20630;-72
2024/03/08 04:57:10;;;;;;;51.97;25.47;;;;;;;;;;5068271;28;20181;-72
2024/03/08 04:59:36;;;;;;;56.33;27.17;;;;;;;;;;5066475;28;20289;-72
2024/03/08 05:02:02;;;;;;;55.80;27.07;;;;;;;;;;5063959;28;20181;-72
2024/03/08 05:04:29;;;;;;;58.47;27.03;;;;;;;;;;5064720;28;20478;-72
2024/03/08 05:06:55;;;;;;;56.57;27.07;;;;;;;;;;5055873;28;20234;-72
2024/03/08 05:09:20;;;;;;;63.47;25.97;;;;;;;;;;5068838;28;20219;-72
2024/03/08 05:11:47;;;;;;;54.53;26.70;;;;;;;;;;5069076;28;20201;-72
2024/03/08 05:14:16;;;;;;;53.73;26.37;;;;;;;;;;5066240;28;20635;-72
2024/03/08 05:16:48;;;;;;;53.70;25.10;;;;;;;;;;5071596;28;20189;-72
2024/03/08 05:19:17;;;;;;;53.40;26.03;;;;;;;;;;5067980;28;20197;-72
2024/03/08 05:21:47;;;;;;;55.57;26.33;;;;;;;;;;5067881;28;20332;-71
2024/03/08 05:24:13;;;;;;;53.97;25.47;;;;;;;;;;5066766;28;20205;-72
2024/03/08 05:26:39;;;;;;;56.00;25.10;;;;;;;;;;5068774;28;20256;-72
2024/03/08 05:29:04;;;;;;;60.63;26.60;;;;;;;;;;5053882;28;20335;-72
2024/03/08 05:31:43;;;;;;;54.60;26.37;;;;;;;;;;5066698;28;20203;-72
2024/03/08 05:34:09;;;;;;;54.70;25.23;;;;;;;;;;5080547;28;20188;-72
2024/03/08 05:36:35;;;;;;;59.93;27.03;;;;;;;;;;5065705;28;20224;-72
2024/03/08 05:39:01;;;;;;;56.90;26.23;;;;;;;;;;5059227;28;20276;-72
2024/03/08 05:41:26;;;;;;;58.37;26.77;;;;;;;;;;5055172;28;20674;-72
2024/03/08 05:43:51;;;;;;;54.93;26.93;;;;;;;;;;5069214;28;20721;-72
2024/03/08 05:46:18;;;;;;;53.80;25.43;;;;;;;;;;5063072;28;20268;-72
2024/03/08 05:48:46;;;;;;;55.23;25.70;;;;;;;;;;5069301;28;20181;-72
2024/03/08 05:51:12;;;;;;;56.10;26.47;;;;;;;;;;5065890;28;20185;-72
2024/03/08 05:53:37;;;;;;;58.53;26.00;;;;;;;;;;5067611;28;20611;-72
2024/03/08 05:56:03;;;;;;;53.13;25.97;;;;;;;;;;5064362;28;20247;-72
2024/03/08 05:58:30;;;;;;;55.50;25.17;;;;;;;;;;5056730;28;20192;-72
2024/03/08 06:00:56;;;;;;;52.47;25.40;;;;;;;;;;5068413;28;20196;-72
2024/03/08 06:03:21;;;;;;;56.37;26.57;;;;;;;;;;5048936;28;20213;-72
2024/03/08 06:05:48;;;;;;;56.63;26.90;;;;;;;;;;5067149;28;20192;-72
2024/03/08 06:08:14;;;;;;;54.50;26.87;;;;;;;;;;5064703;28;20660;-72
2024/03/08 06:10:40;;;;;;;55.57;25.60;;;;;;;;;;5063577;28;20185;-72
2024/03/08 06:13:06;;;;;;;58.77;26.70;;;;;;;;;;5063649;28;20192;-72
2024/03/08 06:15:32;;;;;;;58.63;27.87;;;;;;;;;;5061357;28;20180;-72
2024/03/08 06:17:57;;;;;;;54.30;26.53;;;;;;;;;;5065729;28;20507;-72
2024/03/08 06:20:26;;;;;;;56.17;25.60;;;;;;;;;;5060658;28;20224;-72
2024/03/08 06:22:52;;;;;;;56.13;27.23;;;;;;;;;;5066143;28;20196;-72
2024/03/08 06:25:17;;;;;;;54.67;27.50;;;;;;;;;;5063005;28;20181;-72
2024/03/08 06:27:43;;;;;;;54.33;26.07;;;;;;;;;;5062831;28;20246;-72
2024/03/08 06:30:10;;;;;;;58.70;26.33;;;;;;;;;;5059096;28;20181;-73
2024/03/08 06:32:38;;;;;;;53.50;26.27;;;;;;;;;;5064326;28;20190;-73
2024/03/08 06:35:06;;;;;;;60.53;27.37;;;;;;;;;;5065459;28;20221;-73
2024/03/08 06:37:34;;;;;;;60.17;27.87;;;;;;;;;;5064635;28;20214;-73
2024/03/08 06:40:00;;;;;;;55.47;27.23;;;;;;;;;;5065234;28;20177;-72
2024/03/08 06:42:28;;;;;;;56.83;26.10;;;;;;;;;;5067359;28;20660;-72
2024/03/08 06:44:55;;;;;;;62.17;28.03;;;;;;;;;;5056421;28;20802;-72
2024/03/08 06:47:21;;;;;;;53.90;26.53;;;;;;;;;;5067020;28;20658;-72
2024/03/08 06:49:47;;;;;;;55.43;26.43;;;;;;;;;;5056933;28;20185;-72
2024/03/08 06:52:12;;;;;;;57.57;25.93;;;;;;;;;;5066550;28;20189;-72
2024/03/08 06:54:38;;;;;;;52.60;25.03;;;;;;;;;;5058817;28;20200;-72
2024/03/08 06:57:04;;;;;;;58.87;26.30;;;;;;;;;;5062137;28;20185;-72
2024/03/08 06:59:30;;;;;;;58.07;26.57;;;;;;;;;;5064886;28;20189;-72
2024/03/08 07:01:56;;;;;;;55.63;27.10;;;;;;;;;;5063098;28;20211;-72
2024/03/08 07:04:24;;;;;;;58.63;26.90;;;;;;;;;;5062480;28;20263;-72
2024/03/08 07:06:49;;;;;;;51.63;23.87;;;;;;;;;;5060771;28;20189;-72
2024/03/08 07:09:16;;;;;;;51.00;24.77;;;;;;;;;;5061410;28;20242;-72
2024/03/08 07:11:42;;;;;;;54.60;25.43;;;;;;;;;;5067220;28;20185;-72
2024/03/08 07:14:08;;;;;;;52.87;26.70;;;;;;;;;;5066274;28;20249;-72
2024/03/08 07:16:35;;;;;;;51.67;26.23;;;;;;;;;;5064693;28;20724;-72
2024/03/08 07:19:01;;;;;;;58.40;26.37;;;;;;;;;;5063365;28;20204;-71
2024/03/08 07:21:27;;;;;;;60.93;26.63;;;;;;;;;;5067781;28;20232;-72
2024/03/08 07:26:27;;;;;;;50.37;25.33;;;;;;;;;;5054132;28;20600;-72
2024/03/08 07:28:54;;;;;;;49.47;24.63;;;;;;;;;;5069756;28;20180;-71
2024/03/08 07:33:53;;;;;;;51.27;24.00;;;;;;;;;;5055817;28;20200;-73
2024/03/08 07:36:19;;;;;;;48.27;26.33;;;;;;;;;;5071072;28;20225;-71
2024/03/08 07:38:46;;;;;;;47.30;24.83;;;;;;;;;;5069642;28;20177;-72
2024/03/08 07:41:12;;;;;;;45.50;24.60;;;;;;;;;;5069362;28;20192;-71
2024/03/08 07:43:38;;;;;;;46.57;25.47;;;;;;;;;;5065397;28;20743;-72
2024/03/08 07:46:03;;;;;;;51.00;25.50;;;;;;;;;;5070749;28;20268;-73
2024/03/08 07:48:30;;;;;;;48.87;24.90;;;;;;;;;;5071443;28;20181;-71
2024/03/08 07:50:55;;;;;;;46.23;24.30;;;;;;;;;;5052323;28;20616;-72
2024/03/08 07:53:21;;;;;;;52.27;24.80;;;;;;;;;;5070154;28;20203;-71
2024/03/08 07:55:46;;;;;;;48.27;23.73;;;;;;;;;;5071337;28;20216;-72
2024/03/08 07:58:13;;;;;;;46.03;24.00;;;;;;;;;;5070760;28;20188;-71
2024/03/08 08:00:38;;;;;;;46.30;25.07;;;;;;;;;;5068608;28;20193;-72
2024/03/08 08:03:05;;;;;;;55.73;24.67;;;;;;;;;;5070094;28;20205;-72
2024/03/08 08:05:35;;;;;;;45.13;23.73;;;;;;;;;;5077991;28;20277;-72
2024/03/08 08:08:02;;;;;;;49.50;25.20;;;;;;;;;;5070154;28;20251;-72
2024/03/08 08:10:28;;;;;;;46.67;24.57;;;;;;;;;;5070482;28;20396;-72
2024/03/08 08:12:54;;;;;;;45.40;24.23;;;;;;;;;;5070895;28;20271;-72
2024/03/08 08:15:20;;;;;;;43.83;23.97;;;;;;;;;;5057691;28;20267;-72
2024/03/08 08:17:45;;;;;;;46.37;24.27;;;;;;;;;;5056981;28;20177;-72
2024/03/08 08:20:12;;;;;;;44.37;23.67;;;;;;;;;;5070781;28;20200;-72
2024/03/08 08:22:40;;;;;;;43.07;24.87;;;;;;;;;;5067605;28;20193;-72
2024/03/08 08:25:06;;;;;;;47.80;25.33;;;;;;;;;;5063791;28;20189;-72
2024/03/08 08:27:31;;;;;;;47.97;25.60;;;;;;;;;;5065072;28;20536;-72
2024/03/08 08:29:57;;;;;;;47.77;25.53;;;;;;;;;;5059188;28;20192;-72
2024/03/08 08:32:22;;;;;;;47.07;24.63;;;;;;;;;;5066661;28;20589;-72
2024/03/08 08:34:48;;;;;;;46.97;24.77;;;;;;;;;;5066166;28;20224;-72
2024/03/08 08:37:13;;;;;;;46.13;25.40;;;;;;;;;;5061702;28;20201;-72
2024/03/08 08:39:39;;;;;;;48.57;25.93;;;;;;;;;;5065608;28;20211;-71
2024/03/08 08:42:04;;;;;;;41.57;25.17;;;;;;;;;;5070708;28;20572;-73
2024/03/08 08:44:31;;;;;;;46.07;25.50;;;;;;;;;;5062040;28;20239;-73
2024/03/08 08:46:57;;;;;;;44.03;24.63;;;;;;;;;;5078225;28;20265;-72
2024/03/08 08:49:23;;;;;;;43.00;25.60;;;;;;;;;;5054280;28;20189;-72
2024/03/08 08:51:52;;;;;;;43.57;23.70;;;;;;;;;;5069005;28;20193;-72
2024/03/08 08:54:18;;;;;;;43.60;26.10;;;;;;;;;;5061465;28;20288;-72
2024/03/08 08:56:44;;;;;;;42.13;25.67;;;;;;;;;;5070061;28;20195;-72
2024/03/08 08:59:13;;;;;;;44.50;25.17;;;;;;;;;;5078866;28;20678;-73
2024/03/08 09:01:39;;;;;;;47.77;25.63;;;;;;;;;;5063710;28;20192;-73
2024/03/08 09:04:05;;;;;;;47.27;25.13;;;;;;;;;;5072278;28;20690;-72
2024/03/08 09:06:31;;;;;;;43.10;25.60;;;;;;;;;;5070344;28;20188;-72
2024/03/08 09:08:57;;;;;;;41.47;24.50;;;;;;;;;;5076275;28;20216;-72
2024/03/08 09:11:25;;;;;;;42.87;26.13;;;;;;;;;;5061011;28;20231;-72
2024/03/08 09:13:50;;;;;;;43.57;25.53;;;;;;;;;;5056771;28;20196;-72
2024/03/08 09:16:16;;;;;;;39.80;24.27;;;;;;;;;;5073138;28;20189;-73
2024/03/08 09:18:41;;;;;;;39.87;24.07;;;;;;;;;;5063221;28;20204;-72
2024/03/08 09:21:09;;;;;;;44.83;25.97;;;;;;;;;;5071802;28;20184;-72
2024/03/08 09:23:36;;;;;;;40.03;23.67;;;;;;;;;;5067165;28;20579;-71
2024/03/08 09:26:02;;;;;;;43.57;24.73;;;;;;;;;;5068874;28;20216;-73
2024/03/08 09:28:28;;;;;;;41.47;23.50;;;;;;;;;;5058901;28;20212;-74
2024/03/08 09:30:54;;;;;;;41.63;25.20;;;;;;;;;;5062485;28;20189;-73
2024/03/08 09:33:20;;;;;;;42.47;23.77;;;;;;;;;;5065713;28;20613;-73
2024/03/08 09:35:51;;;;;;;40.43;24.20;;;;;;;;;;5064790;28;20251;-72
2024/03/08 09:38:16;;;;;;;42.17;23.60;;;;;;;;;;5069876;28;20222;-72
2024/03/08 09:40:42;;;;;;;38.10;23.37;;;;;;;;;;5055809;28;20193;-73
2024/03/08 09:43:08;;;;;;;39.53;23.50;;;;;;;;;;5085315;28;20398;-72
2024/03/08 09:45:41;;;;;;;41.57;24.07;;;;;;;;;;5048782;28;20657;-72
2024/03/08 09:48:13;;;;;;;37.87;23.77;;;;;;;;;;5067908;28;20691;-72
2024/03/08 09:50:42;;;;;;;38.67;24.27;;;;;;;;;;5062508;28;20184;-72
2024/03/08 09:53:11;;;;;;;39.50;22.93;;;;;;;;;;5057421;28;20248;-72
2024/03/08 09:55:37;;;;;;;42.27;22.80;;;;;;;;;;5060141;28;20188;-73
2024/03/08 10:00:50;;;;;;;39.13;24.03;;;;;;;;;;5061442;28;20560;-72
2024/03/08 10:03:15;;;;;;;42.80;24.13;;;;;;;;;;5048555;28;20205;-73
2024/03/08 10:05:41;;;;;;;39.33;23.27;;;;;;;;;;5052568;28;20511;-72
2024/03/08 10:08:08;;;;;;;39.10;22.57;;;;;;;;;;5051151;28;20653;-72
2024/03/08 10:10:39;;;;;;;39.37;23.63;;;;;;;;;;5082920;28;20754;-71
2024/03/08 10:13:06;;;;;;;39.33;23.57;;;;;;;;;;5068859;28;20216;-72
2024/03/08 10:15:33;;;;;;;43.10;24.47;;;;;;;;;;5063166;28;20195;-72
2024/03/08 10:17:58;;;;;;;37.60;23.00;;;;;;;;;;5069756;28;20196;-73
2024/03/08 10:20:24;;;;;;;40.03;23.87;;;;;;;;;;5068810;28;20679;-73
2024/03/08 10:22:50;;;;;;;43.50;24.07;;;;;;;;;;5061905;28;20185;-73
2024/03/08 10:25:17;;;;;;;41.20;24.47;;;;;;;;;;5078743;28;20264;-73
2024/03/08 10:27:42;;;;;;;39.33;23.90;;;;;;;;;;5068586;28;20557;-73
2024/03/08 10:30:15;;;;;;;36.17;22.67;;;;;;;;;;5069108;28;20188;-74
2024/03/08 10:32:41;;;;;;;39.07;23.60;;;;;;;;;;5066644;28;20199;-73
2024/03/08 10:35:09;;;;;;;42.30;25.00;;;;;;;;;;5068612;28;20240;-73
2024/03/08 10:37:46;;;;;;;41.87;24.23;;;;;;;;;;5069415;28;20276;-73
2024/03/08 10:40:19;;;;;;;38.23;24.80;;;;;;;;;;5067856;28;20247;-72
2024/03/08 10:42:56;;;;;;;38.70;24.43;;;;;;;;;;5069068;28;20344;-72
2024/03/08 10:45:44;;;;;;;38.77;24.67;;;;;;;;;;5057012;28;20624;-72
2024/03/08 10:48:15;;;;;;;37.60;23.57;;;;;;;;;;5054112;28;20185;-72
2024/03/08 10:50:42;;;;;;;39.07;23.70;;;;;;;;;;5069822;28;20254;-73
2024/03/08 10:53:10;;;;;;;43.17;23.83;;;;;;;;;;5071303;28;20321;-73
2024/03/08 10:55:40;;;;;;;36.67;23.43;;;;;;;;;;5071347;28;20193;-73
2024/03/08 10:58:07;;;;;;;38.70;24.08;;;;;;;;;;5067843;28;20657;-72
2024/03/08 11:00:33;;;;;;;37.97;23.73;;;;;;;;;;5061176;28;20242;-72
2024/03/08 11:03:00;;;;;;;38.73;24.20;;;;;;;;;;5071868;28;20192;-72
2024/03/08 11:05:38;;;;;;;36.25;22.83;;;;;;;;;;5069196;28;20184;-72
2024/03/08 11:08:18;;;;;;;38.50;23.67;;;;;;;;;;5070769;28;20250;-72
2024/03/08 11:10:52;;;;;;;37.17;23.42;;;;;;;;;;5070285;28;20690;-71
2024/03/08 11:13:36;;;;;;;35.72;23.10;;;;;;;;;;5069372;28;20239;-70
2024/03/08 11:16:07;;;;;;;37.87;23.23;;;;;;;;;;5068442;28;20184;-72
2024/03/08 11:18:34;;;;;;;36.47;23.33;;;;;;;;;;5066575;28;20204;-73
2024/03/08 11:21:05;;;;;;;36.63;23.63;;;;;;;;;;5063972;28;20664;-72
2024/03/08 11:23:31;;;;;;;36.45;22.98;;;;;;;;;;5070739;28;20282;-72
2024/03/08 11:25:56;;;;;;;36.90;22.30;;;;;;;;;;5072155;28;20614;-72
2024/03/08 11:28:26;;;;;;;35.05;22.73;;;;;;;;;;5072406;28;20540;-71
2024/03/08 11:30:58;;;;;;;37.42;23.77;;;;;;;;;;5072011;28;20276;-72
2024/03/08 11:33:26;;;;;;;36.85;23.35;;;;;;;;;;5072655;28;20218;-73
2024/03/08 11:35:52;;;;;;;36.10;23.10;;;;;;;;;;5070833;28;20259;-71
2024/03/08 11:38:19;;;;;;;36.30;21.85;;;;;;;;;;5066474;28;20208;-71
2024/03/08 11:40:49;;;;;;;35.47;22.98;;;;;;;;;;5070432;28;20200;-71
2024/03/08 11:43:16;;;;;;;32.03;22.00;;;;;;;;;;5068685;28;20212;-72
2024/03/08 11:45:41;;;;;;;39.67;22.90;;;;;;;;;;5066041;28;20242;-71
2024/03/08 11:48:07;;;;;;;36.42;22.85;;;;;;;;;;5070857;28;20189;-71
2024/03/08 11:50:33;;;;;;;35.00;21.58;;;;;;;;;;5071373;28;20185;-72
2024/03/08 11:53:03;;;;;;;38.25;23.65;;;;;;;;;;5069509;28;20192;-71
2024/03/08 11:55:29;;;;;;;39.35;23.30;;;;;;;;;;5070011;28;20188;-72
2024/03/08 11:58:02;;;;;;;35.85;23.58;;;;;;;;;;5069235;28;20185;-72
2024/03/08 12:00:34;;;;;;;34.92;22.52;;;;;;;;;;5084129;28;20185;-73
2024/03/08 12:03:04;;;;;;;35.70;23.30;;;;;;;;;;5067873;28;20492;-72
2024/03/08 12:05:31;;;;;;;36.00;22.38;;;;;;;;;;5056571;28;20644;-72
2024/03/08 12:08:00;;;;;;;36.72;22.30;;;;;;;;;;5053534;28;20185;-72
2024/03/08 12:10:25;;;;;;;35.90;22.23;;;;;;;;;;5069649;28;20188;-73
2024/03/08 12:12:53;;;;;;;35.63;22.67;;;;;;;;;;5070300;28;20271;-73
2024/03/08 12:15:20;;;;;;;34.35;22.98;;;;;;;;;;5065727;28;20199;-73
2024/03/08 12:17:48;;;;;;;34.22;22.75;;;;;;;;;;5052558;28;20188;-73
2024/03/08 12:20:22;;;;;;;35.65;22.20;;;;;;;;;;5070399;28;20300;-72
2024/03/08 12:22:48;;;;;;;33.22;22.17;;;;;;;;;;5063927;28;20196;-72
2024/03/08 12:25:14;;;;;;;34.88;22.13;;;;;;;;;;5070767;28;20278;-73
2024/03/08 12:27:41;;;;;;;37.47;23.65;;;;;;;;;;5069455;28;20727;-73
2024/03/08 12:30:26;;;;;;;31.50;21.70;;;;;;;;;;5070947;28;20195;-72
2024/03/08 12:32:56;;;;;;;33.80;21.77;;;;;;;;;;5068794;28;20192;-73
2024/03/08 12:35:23;;;;;;;34.75;22.55;;;;;;;;;;5069710;28;20232;-73
2024/03/08 12:37:51;;;;;;;34.05;22.08;;;;;;;;;;5065276;28;20204;-72
2024/03/08 12:40:17;;;;;;;34.30;22.52;;;;;;;;;;5071126;28;20189;-72
2024/03/08 12:42:45;;;;;;;33.03;21.25;;;;;;;;;;5068201;28;20173;-72
2024/03/08 12:45:10;;;;;;;34.42;21.42;;;;;;;;;;5071573;28;20212;-72
2024/03/08 12:47:36;;;;;;;31.80;20.15;;;;;;;;;;5067935;28;20746;-72
2024/03/08 12:50:03;;;;;;;32.25;20.20;;;;;;;;;;5067558;28;20193;-72
2024/03/08 12:52:30;;;;;;;31.48;20.85;;;;;;;;;;5070338;28;20218;-72
2024/03/08 12:54:55;;;;;;;26.92;18.63;;;;;;;;;;5066882;28;20339;-73
2024/03/08 12:57:21;;;;;;;27.83;18.27;;;;;;;;;;5068532;28;20185;-71
2024/03/08 12:59:46;;;;;;;24.65;17.65;;;;;;;;;;5061588;28;20196;-72
2024/03/08 13:02:12;;;;;;;28.55;18.58;;;;;;;;;;5066907;28;20182;-71
2024/03/08 13:04:37;;;;;;;28.38;17.63;;;;;;;;;;5066407;28;20212;-71
2024/03/08 13:07:03;;;;;;;28.17;18.08;;;;;;;;;;5070370;28;20242;-72
2024/03/08 13:09:28;;;;;;;26.63;18.08;;;;;;;;;;5066127;28;20199;-72
2024/03/08 13:11:55;;;;;;;28.00;18.98;;;;;;;;;;5054182;28;20228;-72
2024/03/08 13:14:21;;;;;;;26.98;18.15;;;;;;;;;;5053717;28;20181;-72
2024/03/08 13:16:47;;;;;;;31.67;17.98;;;;;;;;;;5068419;28;20416;-72
2024/03/08 13:19:13;;;;;;;26.15;18.27;;;;;;;;;;5051500;28;20643;-72
2024/03/08 13:21:39;;;;;;;27.42;18.80;;;;;;;;;;5067951;28;20195;-72
2024/03/08 13:24:05;;;;;;;23.95;17.10;;;;;;;;;;5070093;28;20232;-72
2024/03/08 13:26:33;;;;;;;29.48;17.90;;;;;;;;;;5061196;28;20652;-72
2024/03/08 13:28:59;;;;;;;26.05;17.98;;;;;;;;;;5069709;28;20197;-73
2024/03/08 13:31:24;;;;;;;27.90;17.90;;;;;;;;;;5068687;28;20314;-72
2024/03/08 13:33:51;;;;;;;27.15;18.83;;;;;;;;;;5070839;28;20192;-73
2024/03/08 13:36:20;;;;;;;26.70;16.98;;;;;;;;;;5069497;28;20231;-73
2024/03/08 13:38:47;;;;;;;27.15;18.00;;;;;;;;;;5067823;28;20650;-73
2024/03/08 13:41:14;;;;;;;25.30;17.25;;;;;;;;;;5071457;28;20199;-73
2024/03/08 13:43:50;;;;;;;27.00;17.15;;;;;;;;;;5082788;28;20301;-72
2024/03/08 13:46:17;;;;;;;24.05;17.52;;;;;;;;;;5068841;28;20192;-73
2024/03/08 13:48:43;;;;;;;26.10;18.13;;;;;;;;;;5069735;28;20665;-73
2024/03/08 13:51:11;;;;;;;28.25;18.92;;;;;;;;;;5068716;28;20257;-73
2024/03/08 13:53:36;;;;;;;25.95;18.27;;;;;;;;;;5066696;28;20187;-72
2024/03/08 13:56:02;;;;;;;28.35;19.60;;;;;;;;;;5069069;28;20545;-73
2024/03/08 13:58:28;;;;;;;29.85;19.08;;;;;;;;;;5066609;28;20321;-72
2024/03/08 14:00:53;;;;;;;27.77;17.52;;;;;;;;;;5069202;28;20185;-72
2024/03/08 14:03:19;;;;;;;25.58;17.83;;;;;;;;;;5058284;28;20209;-72
2024/03/08 14:05:45;;;;;;;28.90;18.80;;;;;;;;;;5039079;28;20173;-73
2024/03/08 14:08:12;;;;;;;30.13;19.17;;;;;;;;;;5068957;28;20180;-73
2024/03/08 14:10:37;;;;;;;29.65;19.52;;;;;;;;;;5062267;28;20272;-72
2024/03/08 14:13:04;;;;;;;28.90;19.35;;;;;;;;;;5060996;28;20342;-72
2024/03/08 14:15:38;;;;;;;31.33;19.63;;;;;;;;;;5047146;28;20283;-72
2024/03/08 14:18:06;;;;;;;28.88;18.48;;;;;;;;;;5050959;28;20181;-73
2024/03/08 14:20:32;;;;;;;28.42;18.48;;;;;;;;;;5055696;28;20189;-74
2024/03/08 14:22:57;;;;;;;28.92;19.35;;;;;;;;;;5055442;28;20189;-74